Terminal Aerodrome Forecast
Issued by NWS

Home | Current Version | Previous Version | Text Only | Print | Product List | Glossary On
Versions: 1 2 3 4 5 6 7 8 9 10 11 12 13 14
000
FTUS42 KMLB 192342
TAFFPR
TAF
KFPR 192342Z 2000/2024 29008KT P6SM BKN070
     FM200300 33009KT P6SM SCT020 BKN040
     FM200600 36008KT P6SM SKC
     FM201600 07011G17KT P6SM BKN040=

USA.gov is the U.S. government's official web portal to all federal, state and local government web resources and services.